Terminal Aerodrome Forecast
Issued by NWS

Home | Current Version | Previous Version | Text Only | Print | Product List | Glossary On
Versions: 1 2 3 4 5 6 7 8 9 10 11 12 13
000
FTUS46 KSEW 051129
TAFOLM
TAF
KOLM 051129Z 0512/0612 VRB03KT 6SM HZ FEW250
     FM051800 02009KT P6SM FEW250
     FM060300 35005KT P6SM FEW250=

USA.gov is the U.S. government's official web portal to all federal, state and local government web resources and services.